sensor_id;sensor_type;location;lat;lon;timestamp;P1;durP1;ratioP1;P2;durP2;ratioP2
41739;SDS011;27422;52.444;13.300;2023-11-21T00:02:04;4.32;;;1.60;;
41739;SDS011;27422;52.444;13.300;2023-11-21T00:04:29;3.88;;;1.70;;
41739;SDS011;27422;52.444;13.300;2023-11-21T00:06:55;7.13;;;1.60;;
41739;SDS011;27422;52.444;13.300;2023-11-21T00:09:20;5.30;;;1.63;;
41739;SDS011;27422;52.444;13.300;2023-11-21T00:11:46;6.28;;;3.25;;
41739;SDS011;27422;52.444;13.300;2023-11-21T00:14:12;7.55;;;4.10;;
41739;SDS011;27422;52.444;13.300;2023-11-21T00:16:39;6.72;;;4.38;;
41739;SDS011;27422;52.444;13.300;2023-11-21T00:19:05;8.13;;;4.88;;
41739;SDS011;27422;52.444;13.300;2023-11-21T00:21:30;8.40;;;5.40;;
41739;SDS011;27422;52.444;13.300;2023-11-21T00:23:55;12.00;;;6.93;;
41739;SDS011;27422;52.444;13.300;2023-11-21T00:26:21;11.20;;;6.78;;
41739;SDS011;27422;52.444;13.300;2023-11-21T00:28:46;13.00;;;7.78;;
41739;SDS011;27422;52.444;13.300;2023-11-21T00:31:11;15.20;;;8.60;;
41739;SDS011;27422;52.444;13.300;2023-11-21T00:33:37;14.23;;;8.77;;
41739;SDS011;27422;52.444;13.300;2023-11-21T00:36:02;17.77;;;10.35;;
41739;SDS011;27422;52.444;13.300;2023-11-21T00:38:28;16.70;;;10.10;;
41739;SDS011;27422;52.444;13.300;2023-11-21T00:40:53;17.63;;;10.57;;
41739;SDS011;27422;52.444;13.300;2023-11-21T00:45:47;18.67;;;10.48;;
41739;SDS011;27422;52.444;13.300;2023-11-21T00:48:14;20.15;;;11.65;;
41739;SDS011;27422;52.444;13.300;2023-11-21T00:50:40;24.33;;;11.63;;
41739;SDS011;27422;52.444;13.300;2023-11-21T00:53:05;21.05;;;11.82;;
41739;SDS011;27422;52.444;13.300;2023-11-21T00:55:32;24.63;;;12.87;;
41739;SDS011;27422;52.444;13.300;2023-11-21T00:57:58;26.58;;;13.52;;
41739;SDS011;27422;52.444;13.300;2023-11-21T01:00:23;28.63;;;13.98;;
41739;SDS011;27422;52.444;13.300;2023-11-21T01:02:48;28.48;;;13.70;;
41739;SDS011;27422;52.444;13.300;2023-11-21T01:05:14;31.88;;;15.75;;
41739;SDS011;27422;52.444;13.300;2023-11-21T01:07:39;33.63;;;15.63;;
41739;SDS011;27422;52.444;13.300;2023-11-21T01:10:05;31.00;;;15.25;;
41739;SDS011;27422;52.444;13.300;2023-11-21T01:12:32;34.78;;;16.50;;
41739;SDS011;27422;52.444;13.300;2023-11-21T01:15:02;34.83;;;15.57;;
41739;SDS011;27422;52.444;13.300;2023-11-21T01:17:28;33.15;;;15.68;;
41739;SDS011;27422;52.444;13.300;2023-11-21T01:19:54;32.28;;;15.70;;
41739;SDS011;27422;52.444;13.300;2023-11-21T01:22:21;38.03;;;16.40;;
41739;SDS011;27422;52.444;13.300;2023-11-21T01:24:50;38.38;;;16.42;;
41739;SDS011;27422;52.444;13.300;2023-11-21T01:27:16;36.42;;;16.48;;
41739;SDS011;27422;52.444;13.300;2023-11-21T01:29:42;40.33;;;17.35;;
41739;SDS011;27422;52.444;13.300;2023-11-21T01:32:07;38.28;;;17.23;;
41739;SDS011;27422;52.444;13.300;2023-11-21T01:34:33;42.22;;;18.10;;
41739;SDS011;27422;52.444;13.300;2023-11-21T01:36:58;47.67;;;18.55;;
41739;SDS011;27422;52.444;13.300;2023-11-21T01:39:24;45.10;;;18.88;;
41739;SDS011;27422;52.444;13.300;2023-11-21T01:41:50;53.60;;;19.20;;
41739;SDS011;27422;52.444;13.300;2023-11-21T01:44:16;48.63;;;19.55;;
41739;SDS011;27422;52.444;13.300;2023-11-21T01:46:44;47.35;;;19.35;;
41739;SDS011;27422;52.444;13.300;2023-11-21T01:49:10;50.00;;;19.17;;
41739;SDS011;27422;52.444;13.300;2023-11-21T01:51:38;52.17;;;19.10;;
41739;SDS011;27422;52.444;13.300;2023-11-21T01:54:04;51.45;;;20.50;;
41739;SDS011;27422;52.444;13.300;2023-11-21T01:56:30;52.55;;;18.80;;
41739;SDS011;27422;52.444;13.300;2023-11-21T01:58:56;52.83;;;19.83;;
41739;SDS011;27422;52.444;13.300;2023-11-21T02:01:22;48.45;;;18.90;;
41739;SDS011;27422;52.444;13.300;2023-11-21T02:03:47;48.42;;;18.33;;
41739;SDS011;27422;52.444;13.300;2023-11-21T02:06:13;47.55;;;18.48;;
41739;SDS011;27422;52.444;13.300;2023-11-21T02:08:38;57.58;;;20.15;;
41739;SDS011;27422;52.444;13.300;2023-11-21T02:11:04;56.17;;;19.30;;
41739;SDS011;27422;52.444;13.300;2023-11-21T02:13:30;56.67;;;20.52;;
41739;SDS011;27422;52.444;13.300;2023-11-21T02:15:56;58.83;;;19.15;;
41739;SDS011;27422;52.444;13.300;2023-11-21T02:18:23;55.97;;;19.92;;
41739;SDS011;27422;52.444;13.300;2023-11-21T02:20:48;60.97;;;19.55;;
41739;SDS011;27422;52.444;13.300;2023-11-21T02:23:14;55.00;;;19.48;;
41739;SDS011;27422;52.444;13.300;2023-11-21T02:25:39;56.83;;;19.90;;
41739;SDS011;27422;52.444;13.300;2023-11-21T02:28:05;53.15;;;20.10;;
41739;SDS011;27422;52.444;13.300;2023-11-21T02:30:31;44.90;;;16.77;;
41739;SDS011;27422;52.444;13.300;2023-11-21T02:32:57;41.78;;;15.23;;
41739;SDS011;27422;52.444;13.300;2023-11-21T02:35:23;43.47;;;15.20;;
41739;SDS011;27422;52.444;13.300;2023-11-21T02:37:50;39.58;;;15.00;;
41739;SDS011;27422;52.444;13.300;2023-11-21T02:40:16;39.67;;;13.93;;
41739;SDS011;27422;52.444;13.300;2023-11-21T02:42:50;39.55;;;14.52;;
41739;SDS011;27422;52.444;13.300;2023-11-21T02:45:18;34.92;;;13.00;;
41739;SDS011;27422;52.444;13.300;2023-11-21T02:47:47;25.38;;;10.90;;
41739;SDS011;27422;52.444;13.300;2023-11-21T02:50:14;24.60;;;11.25;;
41739;SDS011;27422;52.444;13.300;2023-11-21T02:52:39;30.27;;;10.95;;
41739;SDS011;27422;52.444;13.300;2023-11-21T02:55:05;29.08;;;10.18;;
41739;SDS011;27422;52.444;13.300;2023-11-21T02:57:32;24.15;;;10.93;;
41739;SDS011;27422;52.444;13.300;2023-11-21T02:59:58;24.00;;;10.02;;
41739;SDS011;27422;52.444;13.300;2023-11-21T03:02:24;21.05;;;10.10;;
41739;SDS011;27422;52.444;13.300;2023-11-21T03:04:50;22.95;;;9.68;;
41739;SDS011;27422;52.444;13.300;2023-11-21T03:07:16;26.83;;;10.18;;
41739;SDS011;27422;52.444;13.300;2023-11-21T03:09:42;17.27;;;8.65;;
41739;SDS011;27422;52.444;13.300;2023-11-21T03:12:08;16.88;;;8.13;;
41739;SDS011;27422;52.444;13.300;2023-11-21T03:14:48;16.58;;;8.40;;
41739;SDS011;27422;52.444;13.300;2023-11-21T03:17:32;19.38;;;9.15;;
41739;SDS011;27422;52.444;13.300;2023-11-21T03:19:59;19.88;;;9.27;;
41739;SDS011;27422;52.444;13.300;2023-11-21T03:22:32;17.90;;;9.80;;
41739;SDS011;27422;52.444;13.300;2023-11-21T03:24:58;16.42;;;9.10;;
41739;SDS011;27422;52.444;13.300;2023-11-21T03:27:23;18.30;;;9.77;;
41739;SDS011;27422;52.444;13.300;2023-11-21T03:29:49;20.45;;;10.20;;
41739;SDS011;27422;52.444;13.300;2023-11-21T03:32:14;17.17;;;9.65;;
41739;SDS011;27422;52.444;13.300;2023-11-21T03:34:58;16.17;;;9.38;;
41739;SDS011;27422;52.444;13.300;2023-11-21T03:37:23;16.73;;;9.65;;
41739;SDS011;27422;52.444;13.300;2023-11-21T03:39:50;16.20;;;10.30;;
41739;SDS011;27422;52.444;13.300;2023-11-21T03:42:15;14.95;;;9.35;;
41739;SDS011;27422;52.444;13.300;2023-11-21T03:44:41;16.25;;;9.57;;
41739;SDS011;27422;52.444;13.300;2023-11-21T03:47:06;16.40;;;9.73;;
41739;SDS011;27422;52.444;13.300;2023-11-21T03:49:31;17.77;;;10.48;;
41739;SDS011;27422;52.444;13.300;2023-11-21T03:51:57;16.30;;;10.13;;
41739;SDS011;27422;52.444;13.300;2023-11-21T03:54:22;14.93;;;9.70;;
41739;SDS011;27422;52.444;13.300;2023-11-21T03:56:47;17.25;;;9.60;;
41739;SDS011;27422;52.444;13.300;2023-11-21T03:59:13;16.38;;;9.57;;
41739;SDS011;27422;52.444;13.300;2023-11-21T04:01:38;18.13;;;10.88;;
41739;SDS011;27422;52.444;13.300;2023-11-21T04:04:03;17.77;;;10.70;;
41739;SDS011;27422;52.444;13.300;2023-11-21T04:06:29;17.70;;;10.05;;
41739;SDS011;27422;52.444;13.300;2023-11-21T04:08:54;15.90;;;9.75;;
41739;SDS011;27422;52.444;13.300;2023-11-21T04:11:20;17.67;;;10.10;;
41739;SDS011;27422;52.444;13.300;2023-11-21T04:13:45;16.25;;;9.98;;
41739;SDS011;27422;52.444;13.300;2023-11-21T04:16:11;14.43;;;9.93;;
41739;SDS011;27422;52.444;13.300;2023-11-21T04:18:38;17.00;;;9.90;;
41739;SDS011;27422;52.444;13.300;2023-11-21T04:21:04;17.67;;;10.57;;
41739;SDS011;27422;52.444;13.300;2023-11-21T04:23:30;16.83;;;10.63;;
41739;SDS011;27422;52.444;13.300;2023-11-21T04:25:57;15.65;;;9.98;;
41739;SDS011;27422;52.444;13.300;2023-11-21T04:28:25;15.85;;;9.82;;
41739;SDS011;27422;52.444;13.300;2023-11-21T04:30:50;14.77;;;8.93;;
41739;SDS011;27422;52.444;13.300;2023-11-21T04:33:16;18.10;;;10.27;;
41739;SDS011;27422;52.444;13.300;2023-11-21T04:35:47;15.50;;;9.90;;
41739;SDS011;27422;52.444;13.300;2023-11-21T04:38:13;14.98;;;9.55;;
41739;SDS011;27422;52.444;13.300;2023-11-21T04:40:38;13.52;;;8.73;;
41739;SDS011;27422;52.444;13.300;2023-11-21T04:43:04;14.60;;;8.82;;
41739;SDS011;27422;52.444;13.300;2023-11-21T04:45:29;14.75;;;9.30;;
41739;SDS011;27422;52.444;13.300;2023-11-21T04:47:55;15.32;;;9.52;;
41739;SDS011;27422;52.444;13.300;2023-11-21T04:50:21;14.75;;;9.25;;
41739;SDS011;27422;52.444;13.300;2023-11-21T04:52:46;14.35;;;8.98;;
41739;SDS011;27422;52.444;13.300;2023-11-21T04:55:12;15.55;;;9.45;;
41739;SDS011;27422;52.444;13.300;2023-11-21T04:57:37;14.10;;;8.85;;
41739;SDS011;27422;52.444;13.300;2023-11-21T05:00:03;14.25;;;9.45;;
41739;SDS011;27422;52.444;13.300;2023-11-21T05:02:31;16.20;;;9.70;;
41739;SDS011;27422;52.444;13.300;2023-11-21T05:05:00;14.55;;;9.38;;
41739;SDS011;27422;52.444;13.300;2023-11-21T05:07:25;15.25;;;9.18;;
41739;SDS011;27422;52.444;13.300;2023-11-21T05:09:54;15.90;;;9.65;;
41739;SDS011;27422;52.444;13.300;2023-11-21T05:12:21;16.98;;;10.05;;
41739;SDS011;27422;52.444;13.300;2023-11-21T05:14:47;17.50;;;10.07;;
41739;SDS011;27422;52.444;13.300;2023-11-21T05:17:13;15.93;;;10.02;;
41739;SDS011;27422;52.444;13.300;2023-11-21T05:19:39;17.52;;;10.40;;
41739;SDS011;27422;52.444;13.300;2023-11-21T05:22:05;15.90;;;9.82;;
41739;SDS011;27422;52.444;13.300;2023-11-21T05:24:31;17.35;;;9.55;;
41739;SDS011;27422;52.444;13.300;2023-11-21T05:26:56;13.55;;;8.40;;
41739;SDS011;27422;52.444;13.300;2023-11-21T05:29:22;11.60;;;7.57;;
41739;SDS011;27422;52.444;13.300;2023-11-21T05:31:47;12.07;;;7.40;;
41739;SDS011;27422;52.444;13.300;2023-11-21T05:34:13;12.07;;;6.97;;
41739;SDS011;27422;52.444;13.300;2023-11-21T05:36:38;12.05;;;7.68;;
41739;SDS011;27422;52.444;13.300;2023-11-21T05:39:04;13.40;;;8.40;;
41739;SDS011;27422;52.444;13.300;2023-11-21T05:41:50;14.07;;;7.97;;
41739;SDS011;27422;52.444;13.300;2023-11-21T05:44:15;14.35;;;7.88;;
41739;SDS011;27422;52.444;13.300;2023-11-21T05:46:40;11.88;;;7.78;;
41739;SDS011;27422;52.444;13.300;2023-11-21T05:49:08;12.63;;;6.95;;
41739;SDS011;27422;52.444;13.300;2023-11-21T05:51:33;11.52;;;7.28;;
41739;SDS011;27422;52.444;13.300;2023-11-21T05:53:59;12.60;;;7.85;;
41739;SDS011;27422;52.444;13.300;2023-11-21T05:56:24;11.48;;;7.18;;
41739;SDS011;27422;52.444;13.300;2023-11-21T05:58:50;13.68;;;7.55;;
41739;SDS011;27422;52.444;13.300;2023-11-21T06:01:16;12.73;;;7.25;;
41739;SDS011;27422;52.444;13.300;2023-11-21T06:03:41;12.68;;;7.80;;
41739;SDS011;27422;52.444;13.300;2023-11-21T06:06:07;14.85;;;7.32;;
41739;SDS011;27422;52.444;13.300;2023-11-21T06:08:32;12.63;;;8.10;;
41739;SDS011;27422;52.444;13.300;2023-11-21T06:10:58;10.73;;;6.43;;
41739;SDS011;27422;52.444;13.300;2023-11-21T06:13:23;11.13;;;6.90;;
41739;SDS011;27422;52.444;13.300;2023-11-21T06:15:52;12.70;;;6.97;;
41739;SDS011;27422;52.444;13.300;2023-11-21T06:18:17;11.95;;;7.25;;
41739;SDS011;27422;52.444;13.300;2023-11-21T06:20:44;12.52;;;6.68;;
41739;SDS011;27422;52.444;13.300;2023-11-21T06:23:10;10.85;;;6.50;;
41739;SDS011;27422;52.444;13.300;2023-11-21T06:25:36;10.38;;;6.40;;
41739;SDS011;27422;52.444;13.300;2023-11-21T06:28:02;11.02;;;6.38;;
41739;SDS011;27422;52.444;13.300;2023-11-21T06:30:27;10.13;;;5.85;;
41739;SDS011;27422;52.444;13.300;2023-11-21T06:32:53;10.80;;;6.28;;
41739;SDS011;27422;52.444;13.300;2023-11-21T06:35:19;10.38;;;5.68;;
41739;SDS011;27422;52.444;13.300;2023-11-21T06:37:45;8.88;;;5.43;;
41739;SDS011;27422;52.444;13.300;2023-11-21T06:40:12;10.25;;;5.55;;
41739;SDS011;27422;52.444;13.300;2023-11-21T06:42:40;10.18;;;5.50;;
41739;SDS011;27422;52.444;13.300;2023-11-21T06:45:06;7.82;;;5.13;;
41739;SDS011;27422;52.444;13.300;2023-11-21T06:47:32;10.55;;;5.88;;
41739;SDS011;27422;52.444;13.300;2023-11-21T06:49:58;9.73;;;5.45;;
41739;SDS011;27422;52.444;13.300;2023-11-21T06:52:23;8.10;;;5.30;;
41739;SDS011;27422;52.444;13.300;2023-11-21T06:54:49;8.55;;;4.90;;
41739;SDS011;27422;52.444;13.300;2023-11-21T06:57:14;7.57;;;4.90;;
41739;SDS011;27422;52.444;13.300;2023-11-21T06:59:40;7.40;;;4.55;;
41739;SDS011;27422;52.444;13.300;2023-11-21T07:02:06;8.45;;;4.63;;
41739;SDS011;27422;52.444;13.300;2023-11-21T07:04:34;8.45;;;4.50;;
41739;SDS011;27422;52.444;13.300;2023-11-21T07:07:01;8.52;;;4.82;;
41739;SDS011;27422;52.444;13.300;2023-11-21T07:09:27;9.10;;;4.30;;
41739;SDS011;27422;52.444;13.300;2023-11-21T07:11:52;8.25;;;4.63;;
41739;SDS011;27422;52.444;13.300;2023-11-21T07:14:19;7.38;;;4.35;;
41739;SDS011;27422;52.444;13.300;2023-11-21T07:16:45;8.23;;;5.05;;
41739;SDS011;27422;52.444;13.300;2023-11-21T07:19:11;8.30;;;4.93;;
41739;SDS011;27422;52.444;13.300;2023-11-21T07:21:37;9.55;;;5.00;;
41739;SDS011;27422;52.444;13.300;2023-11-21T07:24:03;9.25;;;4.90;;
41739;SDS011;27422;52.444;13.300;2023-11-21T07:26:29;8.63;;;4.50;;
41739;SDS011;27422;52.444;13.300;2023-11-21T07:28:55;9.35;;;5.28;;
41739;SDS011;27422;52.444;13.300;2023-11-21T07:31:21;8.98;;;5.25;;
41739;SDS011;27422;52.444;13.300;2023-11-21T07:33:47;8.40;;;5.07;;
41739;SDS011;27422;52.444;13.300;2023-11-21T07:36:13;9.25;;;5.40;;
41739;SDS011;27422;52.444;13.300;2023-11-21T07:38:39;9.23;;;5.70;;
41739;SDS011;27422;52.444;13.300;2023-11-21T07:41:05;8.15;;;5.03;;
41739;SDS011;27422;52.444;13.300;2023-11-21T07:43:32;9.43;;;5.28;;
41739;SDS011;27422;52.444;13.300;2023-11-21T07:46:00;8.52;;;5.57;;
41739;SDS011;27422;52.444;13.300;2023-11-21T07:48:29;8.48;;;5.18;;
41739;SDS011;27422;52.444;13.300;2023-11-21T07:50:58;8.60;;;5.20;;
41739;SDS011;27422;52.444;13.300;2023-11-21T07:53:24;8.55;;;4.93;;
41739;SDS011;27422;52.444;13.300;2023-11-21T07:55:56;7.65;;;4.80;;
41739;SDS011;27422;52.444;13.300;2023-11-21T07:58:22;9.38;;;5.03;;
41739;SDS011;27422;52.444;13.300;2023-11-21T08:00:49;8.05;;;4.93;;
41739;SDS011;27422;52.444;13.300;2023-11-21T08:03:15;7.55;;;4.53;;
41739;SDS011;27422;52.444;13.300;2023-11-21T08:05:40;8.30;;;5.22;;
41739;SDS011;27422;52.444;13.300;2023-11-21T08:08:06;8.00;;;5.00;;
41739;SDS011;27422;52.444;13.300;2023-11-21T08:10:32;7.85;;;5.00;;
41739;SDS011;27422;52.444;13.300;2023-11-21T08:12:57;7.45;;;4.63;;
41739;SDS011;27422;52.444;13.300;2023-11-21T08:15:23;7.22;;;4.80;;
41739;SDS011;27422;52.444;13.300;2023-11-21T08:17:49;9.38;;;5.28;;
41739;SDS011;27422;52.444;13.300;2023-11-21T08:20:14;9.10;;;5.70;;
41739;SDS011;27422;52.444;13.300;2023-11-21T08:22:43;7.90;;;4.72;;
41739;SDS011;27422;52.444;13.300;2023-11-21T08:25:09;8.02;;;4.93;;
41739;SDS011;27422;52.444;13.300;2023-11-21T08:27:34;7.80;;;4.93;;
41739;SDS011;27422;52.444;13.300;2023-11-21T08:30:00;9.95;;;5.15;;
41739;SDS011;27422;52.444;13.300;2023-11-21T08:32:27;9.07;;;5.05;;
41739;SDS011;27422;52.444;13.300;2023-11-21T08:34:53;9.10;;;5.40;;
41739;SDS011;27422;52.444;13.300;2023-11-21T08:37:19;8.80;;;5.32;;
41739;SDS011;27422;52.444;13.300;2023-11-21T08:39:45;8.15;;;4.95;;
41739;SDS011;27422;52.444;13.300;2023-11-21T08:44:38;7.45;;;4.60;;
41739;SDS011;27422;52.444;13.300;2023-11-21T08:47:05;6.80;;;4.18;;
41739;SDS011;27422;52.444;13.300;2023-11-21T08:49:30;7.43;;;4.05;;
41739;SDS011;27422;52.444;13.300;2023-11-21T08:51:55;7.50;;;3.92;;
41739;SDS011;27422;52.444;13.300;2023-11-21T08:54:22;6.70;;;3.97;;
41739;SDS011;27422;52.444;13.300;2023-11-21T08:56:48;6.55;;;3.53;;
41739;SDS011;27422;52.444;13.300;2023-11-21T08:59:15;7.20;;;4.00;;
41739;SDS011;27422;52.444;13.300;2023-11-21T09:01:40;8.05;;;4.10;;
41739;SDS011;27422;52.444;13.300;2023-11-21T09:04:05;6.20;;;3.65;;
41739;SDS011;27422;52.444;13.300;2023-11-21T09:06:31;6.93;;;3.35;;
41739;SDS011;27422;52.444;13.300;2023-11-21T09:08:56;7.50;;;4.00;;
41739;SDS011;27422;52.444;13.300;2023-11-21T09:11:22;6.85;;;4.00;;
41739;SDS011;27422;52.444;13.300;2023-11-21T09:13:50;9.93;;;3.90;;
41739;SDS011;27422;52.444;13.300;2023-11-21T09:16:16;7.30;;;3.60;;
41739;SDS011;27422;52.444;13.300;2023-11-21T09:18:42;7.28;;;3.35;;
41739;SDS011;27422;52.444;13.300;2023-11-21T09:21:07;7.97;;;3.83;;
41739;SDS011;27422;52.444;13.300;2023-11-21T09:23:33;10.55;;;4.15;;
41739;SDS011;27422;52.444;13.300;2023-11-21T09:26:19;9.98;;;4.05;;
41739;SDS011;27422;52.444;13.300;2023-11-21T09:28:44;9.90;;;4.22;;
41739;SDS011;27422;52.444;13.300;2023-11-21T09:31:13;9.18;;;4.18;;
41739;SDS011;27422;52.444;13.300;2023-11-21T09:36:10;9.70;;;4.13;;
41739;SDS011;27422;52.444;13.300;2023-11-21T09:38:36;8.00;;;3.70;;
41739;SDS011;27422;52.444;13.300;2023-11-21T09:41:02;11.02;;;4.68;;
41739;SDS011;27422;52.444;13.300;2023-11-21T09:43:29;9.18;;;4.25;;
41739;SDS011;27422;52.444;13.300;2023-11-21T09:45:59;10.50;;;4.78;;
41739;SDS011;27422;52.444;13.300;2023-11-21T09:48:25;10.45;;;4.10;;
41739;SDS011;27422;52.444;13.300;2023-11-21T09:50:51;9.52;;;4.40;;
41739;SDS011;27422;52.444;13.300;2023-11-21T09:53:20;8.43;;;4.10;;
41739;SDS011;27422;52.444;13.300;2023-11-21T09:55:47;10.50;;;4.43;;
41739;SDS011;27422;52.444;13.300;2023-11-21T09:58:15;11.38;;;4.00;;
41739;SDS011;27422;52.444;13.300;2023-11-21T10:00:41;11.18;;;4.47;;
41739;SDS011;27422;52.444;13.300;2023-11-21T10:03:08;10.60;;;4.33;;
41739;SDS011;27422;52.444;13.300;2023-11-21T10:05:34;11.45;;;4.68;;
41739;SDS011;27422;52.444;13.300;2023-11-21T10:08:00;9.40;;;4.13;;
41739;SDS011;27422;52.444;13.300;2023-11-21T10:10:26;11.07;;;4.43;;
41739;SDS011;27422;52.444;13.300;2023-11-21T10:12:56;10.60;;;4.57;;
41739;SDS011;27422;52.444;13.300;2023-11-21T10:15:22;8.55;;;4.18;;
41739;SDS011;27422;52.444;13.300;2023-11-21T10:17:50;12.88;;;4.82;;
41739;SDS011;27422;52.444;13.300;2023-11-21T10:20:18;11.48;;;4.65;;
41739;SDS011;27422;52.444;13.300;2023-11-21T10:22:44;10.80;;;4.82;;
41739;SDS011;27422;52.444;13.300;2023-11-21T10:25:11;12.43;;;5.40;;
41739;SDS011;27422;52.444;13.300;2023-11-21T10:27:39;11.77;;;5.07;;
41739;SDS011;27422;52.444;13.300;2023-11-21T10:30:09;12.00;;;5.03;;
41739;SDS011;27422;52.444;13.300;2023-11-21T10:32:41;13.50;;;5.07;;
41739;SDS011;27422;52.444;13.300;2023-11-21T10:35:08;13.60;;;5.07;;
41739;SDS011;27422;52.444;13.300;2023-11-21T10:37:37;12.52;;;5.00;;
41739;SDS011;27422;52.444;13.300;2023-11-21T10:40:09;11.68;;;5.13;;
41739;SDS011;27422;52.444;13.300;2023-11-21T10:42:37;13.98;;;5.85;;
41739;SDS011;27422;52.444;13.300;2023-11-21T10:45:05;12.20;;;5.22;;
41739;SDS011;27422;52.444;13.300;2023-11-21T10:47:39;15.50;;;5.72;;
41739;SDS011;27422;52.444;13.300;2023-11-21T10:50:05;14.35;;;5.85;;
41739;SDS011;27422;52.444;13.300;2023-11-21T10:52:31;12.85;;;5.70;;
41739;SDS011;27422;52.444;13.300;2023-11-21T10:55:01;12.82;;;5.93;;
41739;SDS011;27422;52.444;13.300;2023-11-21T10:57:28;13.95;;;5.82;;
41739;SDS011;27422;52.444;13.300;2023-11-21T10:59:54;13.30;;;5.82;;
41739;SDS011;27422;52.444;13.300;2023-11-21T11:02:24;13.85;;;6.00;;
41739;SDS011;27422;52.444;13.300;2023-11-21T11:04:53;14.85;;;5.70;;
41739;SDS011;27422;52.444;13.300;2023-11-21T11:09:46;12.13;;;4.97;;
41739;SDS011;27422;52.444;13.300;2023-11-21T11:12:12;8.65;;;3.88;;
41739;SDS011;27422;52.444;13.300;2023-11-21T11:14:40;9.87;;;4.37;;
41739;SDS011;27422;52.444;13.300;2023-11-21T11:17:06;8.57;;;4.67;;
41739;SDS011;27422;52.444;13.300;2023-11-21T11:35:04;6.45;;;3.40;;
41739;SDS011;27422;52.444;13.300;2023-11-21T11:37:35;5.55;;;2.97;;
41739;SDS011;27422;52.444;13.300;2023-11-21T11:40:00;7.10;;;3.28;;
41739;SDS011;27422;52.444;13.300;2023-11-21T11:42:26;5.90;;;2.90;;
41739;SDS011;27422;52.444;13.300;2023-11-21T11:44:52;6.15;;;3.20;;
41739;SDS011;27422;52.444;13.300;2023-11-21T11:50:06;7.03;;;2.95;;
41739;SDS011;27422;52.444;13.300;2023-11-21T11:55:06;6.00;;;2.97;;
41739;SDS011;27422;52.444;13.300;2023-11-21T11:57:35;8.50;;;3.30;;
41739;SDS011;27422;52.444;13.300;2023-11-21T12:02:35;6.53;;;3.08;;
41739;SDS011;27422;52.444;13.300;2023-11-21T12:05:06;5.15;;;3.13;;
41739;SDS011;27422;52.444;13.300;2023-11-21T12:10:18;6.03;;;3.10;;
41739;SDS011;27422;52.444;13.300;2023-11-21T12:12:50;6.95;;;3.60;;
41739;SDS011;27422;52.444;13.300;2023-11-21T12:15:17;5.72;;;3.42;;
41739;SDS011;27422;52.444;13.300;2023-11-21T12:17:44;5.85;;;3.55;;
41739;SDS011;27422;52.444;13.300;2023-11-21T12:20:11;5.63;;;3.40;;
41739;SDS011;27422;52.444;13.300;2023-11-21T12:22:43;7.07;;;3.33;;
41739;SDS011;27422;52.444;13.300;2023-11-21T12:25:08;5.97;;;3.33;;
41739;SDS011;27422;52.444;13.300;2023-11-21T12:27:34;6.65;;;3.78;;
41739;SDS011;27422;52.444;13.300;2023-11-21T12:30:00;6.57;;;3.55;;
41739;SDS011;27422;52.444;13.300;2023-11-21T12:32:25;5.70;;;3.28;;
41739;SDS011;27422;52.444;13.300;2023-11-21T12:34:54;8.10;;;3.83;;
41739;SDS011;27422;52.444;13.300;2023-11-21T12:37:19;7.00;;;3.78;;
41739;SDS011;27422;52.444;13.300;2023-11-21T12:39:45;7.15;;;3.58;;
41739;SDS011;27422;52.444;13.300;2023-11-21T12:42:10;6.20;;;4.00;;
41739;SDS011;27422;52.444;13.300;2023-11-21T12:44:36;6.32;;;3.70;;
41739;SDS011;27422;52.444;13.300;2023-11-21T12:47:06;5.60;;;3.45;;
41739;SDS011;27422;52.444;13.300;2023-11-21T12:49:31;6.22;;;3.90;;
41739;SDS011;27422;52.444;13.300;2023-11-21T12:51:59;5.72;;;3.60;;
41739;SDS011;27422;52.444;13.300;2023-11-21T12:54:24;7.15;;;3.33;;
41739;SDS011;27422;52.444;13.300;2023-11-21T12:56:53;5.30;;;3.33;;
41739;SDS011;27422;52.444;13.300;2023-11-21T12:59:20;6.03;;;3.50;;
41739;SDS011;27422;52.444;13.300;2023-11-21T13:01:46;5.45;;;3.30;;
41739;SDS011;27422;52.444;13.300;2023-11-21T13:04:12;6.82;;;3.63;;
41739;SDS011;27422;52.444;13.300;2023-11-21T13:06:38;5.68;;;3.45;;
41739;SDS011;27422;52.444;13.300;2023-11-21T13:09:07;6.65;;;3.70;;
41739;SDS011;27422;52.444;13.300;2023-11-21T13:11:36;5.05;;;3.00;;
41739;SDS011;27422;52.444;13.300;2023-11-21T13:14:01;5.15;;;3.00;;
41739;SDS011;27422;52.444;13.300;2023-11-21T13:16:28;5.80;;;2.88;;
41739;SDS011;27422;52.444;13.300;2023-11-21T13:18:55;7.33;;;2.73;;
41739;SDS011;27422;52.444;13.300;2023-11-21T13:21:21;5.13;;;3.25;;
41739;SDS011;27422;52.444;13.300;2023-11-21T13:23:47;7.13;;;3.50;;
41739;SDS011;27422;52.444;13.300;2023-11-21T13:26:15;6.57;;;3.20;;
41739;SDS011;27422;52.444;13.300;2023-11-21T13:28:40;7.25;;;3.50;;
41739;SDS011;27422;52.444;13.300;2023-11-21T13:31:10;6.57;;;3.78;;
41739;SDS011;27422;52.444;13.300;2023-11-21T13:33:46;7.53;;;4.35;;
41739;SDS011;27422;52.444;13.300;2023-11-21T13:36:19;9.35;;;4.78;;
41739;SDS011;27422;52.444;13.300;2023-11-21T13:38:47;8.68;;;4.47;;
41739;SDS011;27422;52.444;13.300;2023-11-21T13:41:14;9.27;;;4.87;;
41739;SDS011;27422;52.444;13.300;2023-11-21T13:43:40;8.70;;;5.25;;
41739;SDS011;27422;52.444;13.300;2023-11-21T13:46:09;11.50;;;5.20;;
41739;SDS011;27422;52.444;13.300;2023-11-21T13:48:42;11.63;;;5.93;;
41739;SDS011;27422;52.444;13.300;2023-11-21T13:51:12;11.77;;;5.65;;
41739;SDS011;27422;52.444;13.300;2023-11-21T13:53:46;11.77;;;6.07;;
41739;SDS011;27422;52.444;13.300;2023-11-21T13:56:14;13.38;;;6.50;;
41739;SDS011;27422;52.444;13.300;2023-11-21T13:58:44;12.27;;;6.72;;
41739;SDS011;27422;52.444;13.300;2023-11-21T14:01:12;13.98;;;6.93;;
41739;SDS011;27422;52.444;13.300;2023-11-21T14:04:13;12.75;;;6.50;;
41739;SDS011;27422;52.444;13.300;2023-11-21T14:06:43;13.27;;;6.95;;
41739;SDS011;27422;52.444;13.300;2023-11-21T14:09:16;12.35;;;6.82;;
41739;SDS011;27422;52.444;13.300;2023-11-21T14:11:50;13.43;;;7.13;;
41739;SDS011;27422;52.444;13.300;2023-11-21T14:14:24;12.35;;;6.03;;
41739;SDS011;27422;52.444;13.300;2023-11-21T14:16:51;10.52;;;5.90;;
41739;SDS011;27422;52.444;13.300;2023-11-21T14:19:17;10.18;;;5.88;;
41739;SDS011;27422;52.444;13.300;2023-11-21T14:21:43;12.65;;;6.15;;
41739;SDS011;27422;52.444;13.300;2023-11-21T14:24:10;11.93;;;6.75;;
41739;SDS011;27422;52.444;13.300;2023-11-21T14:26:38;17.20;;;7.88;;
41739;SDS011;27422;52.444;13.300;2023-11-21T14:29:07;16.08;;;8.75;;
41739;SDS011;27422;52.444;13.300;2023-11-21T14:31:39;21.75;;;10.45;;
41739;SDS011;27422;52.444;13.300;2023-11-21T14:34:04;22.10;;;11.57;;
41739;SDS011;27422;52.444;13.300;2023-11-21T14:36:32;18.10;;;9.40;;
41739;SDS011;27422;52.444;13.300;2023-11-21T14:38:57;16.73;;;9.50;;
41739;SDS011;27422;52.444;13.300;2023-11-21T14:41:23;17.38;;;9.48;;
41739;SDS011;27422;52.444;13.300;2023-11-21T14:43:53;15.23;;;8.60;;
41739;SDS011;27422;52.444;13.300;2023-11-21T14:46:19;16.63;;;8.95;;
41739;SDS011;27422;52.444;13.300;2023-11-21T14:48:44;17.45;;;10.50;;
41739;SDS011;27422;52.444;13.300;2023-11-21T14:51:26;18.77;;;10.85;;
41739;SDS011;27422;52.444;13.300;2023-11-21T14:53:55;17.42;;;10.30;;
41739;SDS011;27422;52.444;13.300;2023-11-21T14:56:24;17.50;;;10.43;;
41739;SDS011;27422;52.444;13.300;2023-11-21T14:58:58;18.27;;;11.27;;